createdAt,value
2023-11-22T00:01:41.954Z,16.59
2023-11-22T00:06:44.944Z,16.49
2023-11-22T00:11:49.564Z,16.53
2023-11-22T00:16:52.622Z,16.34
2023-11-22T00:21:55.636Z,16.03
2023-11-22T00:27:00.267Z,15.97
2023-11-22T00:32:03.230Z,15.96
2023-11-22T00:37:06.313Z,15.66
2023-11-22T00:42:10.956Z,15.60
2023-11-22T00:47:13.989Z,15.38
2023-11-22T00:52:16.936Z,15.37
2023-11-22T00:57:21.520Z,15.23
2023-11-22T01:02:24.502Z,15.19
2023-11-22T01:07:27.488Z,15.15
2023-11-22T01:12:32.122Z,15.01
2023-11-22T01:17:35.156Z,14.71
2023-11-22T01:22:38.132Z,14.67
2023-11-22T01:27:42.817Z,14.34
2023-11-22T01:32:45.884Z,14.13
2023-11-22T01:37:48.938Z,14.12
2023-11-22T01:42:53.535Z,14.00
2023-11-22T01:47:57.373Z,13.60
2023-11-22T01:53:00.376Z,13.33
2023-11-22T01:58:06.020Z,13.40
2023-11-22T02:03:09.145Z,13.14
2023-11-22T02:08:12.235Z,13.14
2023-11-22T02:13:16.851Z,13.27
2023-11-22T02:18:19.860Z,13.05
2023-11-22T02:23:24.577Z,13.15
2023-11-22T02:28:27.544Z,12.91
2023-11-22T02:33:30.493Z,12.85
2023-11-22T02:38:35.113Z,12.77
2023-11-22T02:43:41.278Z,12.62
2023-11-22T02:48:44.331Z,12.48
2023-11-22T02:53:48.949Z,12.41
2023-11-22T02:58:51.955Z,12.41
2023-11-22T03:03:55.001Z,12.43
2023-11-22T03:08:59.686Z,12.44
2023-11-22T03:14:02.653Z,12.47
2023-11-22T03:19:05.642Z,12.23
2023-11-22T03:24:10.662Z,12.15
2023-11-22T03:29:13.636Z,11.96
2023-11-22T03:34:16.598Z,11.91
2023-11-22T03:39:21.238Z,12.02
2023-11-22T03:44:24.244Z,11.84
2023-11-22T03:49:27.277Z,11.69
2023-11-22T03:54:32.887Z,11.84
2023-11-22T03:59:36.878Z,11.62
2023-11-22T04:04:39.979Z,11.28
2023-11-22T04:09:44.561Z,11.24
2023-11-22T04:14:47.655Z,11.12
2023-11-22T04:19:50.748Z,11.05
2023-11-22T04:24:56.371Z,11.08
2023-11-22T04:29:59.344Z,10.93
2023-11-22T04:35:02.290Z,11.13
2023-11-22T04:40:07.788Z,11.14
2023-11-22T04:45:11.443Z,11.30
2023-11-22T04:50:14.583Z,11.13
2023-11-22T04:55:20.519Z,11.20
2023-11-22T05:00:23.731Z,11.05
2023-11-22T05:05:26.701Z,11.07
2023-11-22T05:10:31.346Z,11.03
2023-11-22T05:15:34.315Z,11.03
2023-11-22T05:20:37.323Z,10.99
2023-11-22T05:25:41.943Z,10.80
2023-11-22T05:30:44.953Z,10.84
2023-11-22T05:35:47.937Z,10.81
2023-11-22T05:40:52.580Z,10.67
2023-11-22T05:45:55.597Z,10.67
2023-11-22T05:50:58.650Z,10.57
2023-11-22T05:56:04.518Z,10.58
2023-11-22T06:01:08.803Z,10.61
2023-11-22T06:06:11.759Z,10.48
2023-11-22T06:11:16.526Z,10.44
2023-11-22T06:16:19.598Z,10.32
2023-11-22T06:21:22.728Z,10.46
2023-11-22T06:26:27.522Z,10.55
2023-11-22T06:31:30.508Z,10.35
2023-11-22T06:36:33.484Z,10.43
2023-11-22T06:41:38.128Z,10.27
2023-11-22T06:46:41.125Z,10.29
2023-11-22T06:51:44.114Z,10.16
2023-11-22T06:56:48.778Z,10.11
2023-11-22T07:01:51.778Z,10.08
2023-11-22T07:06:54.734Z,10.17
2023-11-22T07:11:59.314Z,10.18
2023-11-22T07:17:02.253Z,10.15
2023-11-22T07:22:05.398Z,10.06
2023-11-22T07:27:11.061Z,9.94
2023-11-22T07:32:14.015Z,9.79
2023-11-22T07:37:16.987Z,9.79
2023-11-22T07:42:21.588Z,9.67
2023-11-22T07:47:24.632Z,9.72
2023-11-22T07:52:27.648Z,9.58
2023-11-22T07:57:32.247Z,9.42
2023-11-22T08:02:36.429Z,9.48
2023-11-22T08:07:40.856Z,9.45
2023-11-22T08:12:45.475Z,9.40
2023-11-22T08:17:48.864Z,9.37
2023-11-22T08:22:52.144Z,9.24
2023-11-22T08:27:57.950Z,9.01
2023-11-22T08:33:01.000Z,9.14
2023-11-22T08:38:04.033Z,9.11
2023-11-22T08:43:08.659Z,9.22
2023-11-22T08:48:11.741Z,9.08
2023-11-22T08:53:14.863Z,9.05
2023-11-22T08:58:19.472Z,9.08
2023-11-22T09:03:22.454Z,9.14
2023-11-22T09:08:27.646Z,8.91
2023-11-22T09:13:34.925Z,8.92
2023-11-22T09:18:38.408Z,8.88
2023-11-22T09:23:41.420Z,8.91
2023-11-22T09:28:46.063Z,8.69
2023-11-22T09:33:49.213Z,8.77
2023-11-22T09:38:53.065Z,8.88
2023-11-22T09:43:57.712Z,8.84
2023-11-22T09:49:01.019Z,8.56
2023-11-22T09:54:06.235Z,8.49
2023-11-22T09:59:13.888Z,8.62
2023-11-22T10:04:17.138Z,8.77
2023-11-22T10:09:20.178Z,8.58
2023-11-22T10:14:27.496Z,8.54
2023-11-22T10:19:30.600Z,8.40
2023-11-22T10:24:33.717Z,8.42
2023-11-22T10:29:38.411Z,8.47
2023-11-22T10:34:41.460Z,8.36
2023-11-22T10:39:44.441Z,8.51
2023-11-22T10:44:50.202Z,8.47
2023-11-22T10:49:53.202Z,8.55
2023-11-22T10:55:03.905Z,8.51
2023-11-22T11:00:09.849Z,8.64
2023-11-22T11:05:16.767Z,8.63
2023-11-22T11:10:25.220Z,8.48
2023-11-22T11:15:30.336Z,8.55
2023-11-22T11:20:34.433Z,8.41
2023-11-22T11:25:37.461Z,8.41
2023-11-22T11:30:46.615Z,8.47
2023-11-22T11:35:50.179Z,8.38
2023-11-22T11:40:53.930Z,8.50
2023-11-22T11:46:02.252Z,8.25
2023-11-22T11:51:05.275Z,8.33
2023-11-22T11:56:09.623Z,8.30
2023-11-22T12:01:15.713Z,8.25
2023-11-22T12:06:20.022Z,8.22
2023-11-22T12:11:23.197Z,8.24
2023-11-22T12:16:27.898Z,8.24
2023-11-22T12:21:31.854Z,8.30
2023-11-22T12:26:34.817Z,8.26
2023-11-22T12:31:45.534Z,8.16
2023-11-22T12:36:49.647Z,8.35
2023-11-22T12:42:01.645Z,8.34
2023-11-22T12:47:11.357Z,8.41
2023-11-22T12:52:14.292Z,8.29
2023-11-22T12:57:19.711Z,8.30
2023-11-22T13:02:25.295Z,8.48
2023-11-22T13:07:28.329Z,8.43
2023-11-22T13:12:31.288Z,8.48
2023-11-22T13:17:36.919Z,8.32
2023-11-22T13:22:39.870Z,8.30
2023-11-22T13:27:42.801Z,8.40
2023-11-22T13:32:47.567Z,8.37
2023-11-22T13:37:50.904Z,8.28
2023-11-22T13:42:53.937Z,8.27
2023-11-22T13:47:58.646Z,8.22
2023-11-22T13:53:01.660Z,8.31
2023-11-22T13:58:04.727Z,8.16
2023-11-22T14:03:09.869Z,8.22
2023-11-22T14:08:13.446Z,8.24
2023-11-22T14:13:16.907Z,8.12
2023-11-22T14:18:21.668Z,8.09
2023-11-22T14:23:24.672Z,7.98
2023-11-22T14:28:27.649Z,8.09
2023-11-22T14:33:32.352Z,8.00
2023-11-22T14:38:35.346Z,8.01
2023-11-22T14:43:38.301Z,7.96
2023-11-22T14:48:42.987Z,7.80
2023-11-22T14:53:45.978Z,7.83
2023-11-22T14:58:48.935Z,7.89
2023-11-22T15:03:54.587Z,7.83
2023-11-22T15:08:57.618Z,7.82
2023-11-22T15:14:00.601Z,7.87
2023-11-22T15:19:05.323Z,8.16
2023-11-22T15:24:08.718Z,8.34
2023-11-22T15:29:11.701Z,8.53
2023-11-22T15:34:17.278Z,8.83
2023-11-22T15:39:20.240Z,9.18
2023-11-22T15:44:23.282Z,9.47
2023-11-22T15:49:27.879Z,9.86
2023-11-22T15:54:30.804Z,10.15
2023-11-22T15:59:33.802Z,10.43
2023-11-22T16:04:38.426Z,10.63
2023-11-22T16:09:41.374Z,10.80
2023-11-22T16:14:44.404Z,11.02
2023-11-22T16:19:49.095Z,11.26
2023-11-22T16:24:52.051Z,11.54
2023-11-22T16:29:55.149Z,11.96
2023-11-22T16:34:59.885Z,12.13
2023-11-22T16:40:02.818Z,12.65
2023-11-22T16:45:06.378Z,13.11
2023-11-22T16:50:11.556Z,13.14
2023-11-22T16:55:14.553Z,13.08
2023-11-22T17:00:19.179Z,13.33
2023-11-22T17:05:24.139Z,13.90
2023-11-22T17:10:45.206Z,13.82
2023-11-22T17:15:50.064Z,13.92
2023-11-22T17:20:54.708Z,14.17
2023-11-22T17:25:57.673Z,14.43
2023-11-22T17:31:00.679Z,14.72
2023-11-22T17:36:05.997Z,15.20
2023-11-22T17:41:09.165Z,15.20
2023-11-22T17:46:12.125Z,15.59
2023-11-22T17:51:16.738Z,16.14
2023-11-22T17:56:19.685Z,16.66
2023-11-22T18:01:22.653Z,17.04
2023-11-22T18:06:27.267Z,17.26
2023-11-22T18:11:30.245Z,17.35
2023-11-22T18:16:33.180Z,17.31
2023-11-22T18:21:37.798Z,17.33
2023-11-22T18:26:40.823Z,17.66
2023-11-22T18:31:43.856Z,17.94
2023-11-22T18:36:48.468Z,18.12
2023-11-22T18:41:52.200Z,18.08
2023-11-22T18:46:55.169Z,18.31
2023-11-22T18:52:00.730Z,18.10
2023-11-22T18:57:03.708Z,18.37
2023-11-22T19:02:07.186Z,18.63
2023-11-22T19:07:12.048Z,18.82
2023-11-22T19:12:15.006Z,18.99
2023-11-22T19:17:17.929Z,18.83
2023-11-22T19:22:22.581Z,18.83
2023-11-22T19:27:25.539Z,18.93
2023-11-22T19:32:28.524Z,19.02
2023-11-22T19:37:33.131Z,19.12
2023-11-22T19:42:36.081Z,19.34
2023-11-22T19:47:39.050Z,19.35
2023-11-22T19:52:44.693Z,19.58
2023-11-22T19:57:47.654Z,19.79
2023-11-22T20:02:50.778Z,19.89
2023-11-22T20:07:55.436Z,19.95
2023-11-22T20:12:58.367Z,19.99
2023-11-22T20:18:01.459Z,19.97
2023-11-22T20:23:06.850Z,20.04
2023-11-22T20:28:09.882Z,19.98
2023-11-22T20:33:12.934Z,20.13
2023-11-22T20:38:17.583Z,20.16
2023-11-22T20:43:20.521Z,19.86
2023-11-22T20:48:23.542Z,19.73
2023-11-22T20:53:28.173Z,19.69
2023-11-22T20:58:31.161Z,19.60
2023-11-22T21:03:34.200Z,19.64
2023-11-22T21:08:38.911Z,19.68
2023-11-22T21:13:41.925Z,19.55
2023-11-22T21:18:44.939Z,19.55
2023-11-22T21:23:49.633Z,19.61
2023-11-22T21:28:52.588Z,19.77
2023-11-22T21:33:55.628Z,19.80
2023-11-22T21:39:00.427Z,19.64
2023-11-22T21:44:03.429Z,19.40
2023-11-22T21:49:06.432Z,19.40
2023-11-22T21:54:11.183Z,19.49
2023-11-22T21:59:14.139Z,19.44
2023-11-22T22:04:17.367Z,19.49
2023-11-22T22:09:22.107Z,19.49
2023-11-22T22:14:25.072Z,19.59
2023-11-22T22:19:28.107Z,19.54
2023-11-22T22:24:32.748Z,19.52
2023-11-22T22:29:35.725Z,19.47
2023-11-22T22:34:38.687Z,19.40
2023-11-22T22:39:44.026Z,19.45
2023-11-22T22:44:46.994Z,19.36
2023-11-22T22:49:49.935Z,19.05
2023-11-22T22:54:54.964Z,18.93
2023-11-22T22:59:57.978Z,18.87
2023-11-22T23:05:00.944Z,18.70
2023-11-22T23:10:05.827Z,18.64
2023-11-22T23:15:09.437Z,18.70
2023-11-22T23:20:13.042Z,18.37
2023-11-22T23:25:17.693Z,18.06
2023-11-22T23:30:20.783Z,17.96
2023-11-22T23:35:24.169Z,17.77
2023-11-22T23:40:28.769Z,17.92
2023-11-22T23:45:31.718Z,17.61
2023-11-22T23:50:34.652Z,17.67
2023-11-22T23:55:39.229Z,17.47
